Flight Track Log - Related Links

Times and Time Zones

All times are in EDT time to prevent confusion due to time zone crossing. See the N2266Q flight status page for this flight to view local times or setup timezone preferences in your user account.

Time Position Orientation Groundspeed Altitude Reporting Facility
EDT Latitude Longitude Course Direction KTS MPH feet Rate Location/Type
Tue 11:53:13 AM 40.8225 -89.6461 335° Northwest 144 166 2,500  Level Chicago Center
Tue 11:54:15 AM 40.8581 -89.6689 334° Northwest 127 146 3,300 629 Climbing Chicago Center
Tue 11:55:17 AM 40.8889 -89.6881 335° Northwest 123 142 3,800 339 Climbing Chicago Center
Tue 11:56:19 AM 40.9217 -89.7083 335° Northwest 125 144 4,000 48 Climbing Chicago Center
Tue 11:57:00 AM 40.9959 -89.7320 335° Northwest  Level FlightAware
Tue 11:57:21 AM 40.9569 -89.7306 335° Northwest 133 153 3,900  Level Chicago Center
Tue 11:58:00 AM 41.0314 -89.7538 335° Northwest  Level FlightAware
Tue 11:58:23 AM 40.9922 -89.7522 335° Northwest 136 157 3,900  Level Chicago Center
Tue 11:59:25 AM 41.0267 -89.7736 335° Northwest 136 157 3,900  Level Chicago Center
Tue 12:00:26 PM 41.0683 -89.7997 335° Northwest 136 157 3,900  Level Chicago Center
Tue 12:01:28 PM 41.1022 -89.8214 334° Northwest 136 157 3,900  Level Chicago Center
Tue 12:02:30 PM 41.1369 -89.8428 335° Northwest 136 157 3,900  Level Chicago Center
Tue 12:03:32 PM 41.1719 -89.8647 335° Northwest 136 157 3,900 48 Level Chicago Center
Tue 12:04:34 PM 41.2056 -89.8864 334° Northwest 136 157 4,000  Climbing Chicago Center
Tue 12:05:36 PM 41.2381 -89.9067 335° Northwest 135 155 3,900 -48 Descending Chicago Center
Tue 12:06:38 PM 41.2789 -89.9319 335° Northwest 135 155 3,900  Level Chicago Center
Tue 12:07:40 PM 41.3133 -89.9533 335° Northwest 135 155 3,900  Level Chicago Center
Tue 12:08:42 PM 41.3478 -89.9758 334° Northwest 135 155 3,900  Level Chicago Center
Tue 12:09:44 PM 41.3817 -89.9986 333° Northwest 136 157 3,900  Level Chicago Center
Tue 12:10:47 PM 41.4164 -90.0200 335° Northwest 136 157 3,900  Level Chicago Center
Tue 12:11:49 PM 41.4508 -90.0403 336° Northwest 136 157 3,900  Level Chicago Center
Tue 12:12:51 PM 41.4933 -90.0656 336° Northwest 136 157 3,900  Level Chicago Center
Tue 12:13:53 PM 41.5283 -90.0881 334° Northwest 136 157 3,900  Level Chicago Center
Tue 12:14:55 PM 41.5639 -90.1131 332° Northwest 138 159 3,900  Level Chicago Center
Tue 12:15:57 PM 41.5997 -90.1317 339° North 139 160 3,900  Level Chicago Center
Tue 12:16:59 PM 41.6358 -90.1492 340° North 139 160 3,900  Level Chicago Center
Tue 12:18:01 PM 41.6711 -90.1717 335° Northwest 139 160 3,900  Level Chicago Center
Tue 12:19:03 PM 41.7133 -90.1994 334° Northwest 139 160 3,900  Level Chicago Center
Tue 12:20:05 PM 41.7478 -90.2239 332° Northwest 139 160 3,900  Level Chicago Center
Tue 12:21:08 PM 41.7833 -90.2506 331° Northwest 140 161 3,900  Level Chicago Center
Tue 12:22:10 PM 41.8181 -90.2775 330° Northwest 141 162 3,900  Level Chicago Center
Tue 12:23:12 PM 41.8525 -90.3053 329° Northwest 141 162 3,900  Level Chicago Center
Tue 12:24:14 PM 41.8861 -90.3311 330° Northwest 141 162 3,900 16 Level Chicago Center
Tue 12:29:24 PM 42.0697 -90.4392 334° Northwest 117 135 4,000  Climbing Chicago Center
Tue 12:30:27 PM 42.1056 -90.4606 336° Northwest 139 160 3,900 -48 Descending Chicago Center
Tue 12:31:29 PM 42.1403 -90.4828 335° Northwest 139 160 3,900  Level Chicago Center
Tue 12:32:31 PM 42.1742 -90.5050 334° Northwest 139 160 3,900  Level Chicago Center
Tue 12:33:00 PM 42.1914 -90.4988 334° Northwest  Level FlightAware
Tue 12:33:33 PM 42.2083 -90.5269 335° Northwest 139 160 3,900  Level Chicago Center
Tue 12:34:00 PM 42.2251 -90.5211 334° Northwest  Level FlightAware
Tue 12:34:35 PM 42.2489 -90.5542 334° Northwest 139 160 3,900  Level Chicago Center
Tue 12:35:37 PM 42.2833 -90.5758 335° Northwest 139 160 3,900  Level Chicago Center
Tue 12:36:39 PM 42.3178 -90.5981 334° Northwest 139 160 3,900  Level Chicago Center
Tue 12:37:41 PM 42.3511 -90.6197 334° Northwest 138 159 3,900  Level Chicago Center
Tue 12:38:43 PM 42.3850 -90.6425 334° Northwest 138 159 3,900  Level Chicago Center
Tue 12:39:46 PM 42.4256 -90.6681 335° Northwest 138 159 3,900 -48 Level Chicago Center
Tue 12:40:48 PM 42.4594 -90.6903 334° Northwest 138 159 3,800  Descending Chicago Center
Tue 12:41:50 PM 42.4936 -90.7122 335° Northwest 138 159 3,900 48 Climbing Chicago Center
Tue 12:42:52 PM 42.5269 -90.7342 334° Northwest 138 159 3,900  Level Chicago Center
Tue 12:43:54 PM 42.5656 -90.7603 334° Northwest 136 157 3,900  Level Chicago Center
Tue 12:44:56 PM 42.5992 -90.7822 334° Northwest 135 155 3,900  Level Chicago Center
Tue 12:45:58 PM 42.6325 -90.8033 335° Northwest 135 155 3,900  Level Chicago Center
Tue 12:47:00 PM 42.6658 -90.8256 334° Northwest 135 155 3,900  Level Chicago Center
Tue 12:48:03 PM 42.6992 -90.8464 335° Northwest 135 155 3,900  Level Chicago Center
Tue 12:49:05 PM 42.7400 -90.8750 333° Northwest 135 155 3,900  Level Chicago Center
Tue 12:50:07 PM 42.7733 -90.8969 334° Northwest 135 155 3,900  Level Chicago Center
Tue 12:51:09 PM 42.8067 -90.9192 334° Northwest 135 155 3,900  Level Chicago Center
Tue 12:52:11 PM 42.8403 -90.9411 334° Northwest 135 155 3,900  Level Chicago Center
Tue 12:53:13 PM 42.8736 -90.9625 335° Northwest 135 155 3,900  Level Chicago Center
Tue 12:54:15 PM 42.9136 -90.9897 334° Northwest 135 155 3,900  Level Chicago Center
Tue 12:55:17 PM 42.9472 -91.0119 334° Northwest 135 155 3,900 48 Level Chicago Center
Tue 12:56:19 PM 42.9814 -91.0353 333° Northwest 135 155 4,000  Climbing Chicago Center
Tue 12:57:21 PM 43.0153 -91.0572 335° Northwest 135 155 3,900 -97 Descending Chicago Center
Tue 12:58:23 PM 43.0494 -91.0808 333° Northwest 135 155 3,800  Descending Chicago Center
Tue 12:59:25 PM 43.0914 -91.1078 335° Northwest 135 155 3,900 48 Climbing Chicago Center
Tue 01:00:27 PM 43.1258 -91.1314 333° Northwest 136 157 3,900  Level Chicago Center
Tue 01:01:04 PM 43.1444 -91.1428 336° Northwest 136 157 3,900  Level Minneapolis Center
Tue 01:02:06 PM 43.1792 -91.1653 335° Northwest 136 157 3,900  Level Minneapolis Center
Tue 01:03:08 PM 43.2133 -91.1878 334° Northwest 136 157 3,900 -48 Level Minneapolis Center
Tue 01:04:10 PM 43.2531 -91.2142 334° Northwest 136 157 3,800  Descending Minneapolis Center
Tue 01:05:13 PM 43.2867 -91.2361 335° Northwest 136 157 3,900  Climbing Minneapolis Center
Tue 01:06:15 PM 43.3192 -91.2594 332° Northwest 136 157 3,800  Descending Minneapolis Center
Tue 01:07:17 PM 43.3517 -91.2822 333° Northwest 136 157 3,900 48 Climbing Minneapolis Center
Tue 01:08:19 PM 43.3867 -91.3050 335° Northwest 136 157 3,900  Level Minneapolis Center
Tue 01:09:21 PM 43.4275 -91.3322 334° Northwest 136 157 3,900  Level Minneapolis Center
Tue 01:10:23 PM 43.4597 -91.3553 333° Northwest 136 157 3,900  Level Minneapolis Center
Tue 01:11:25 PM 43.4928 -91.3778 334° Northwest 135 155 3,900 48 Level Minneapolis Center
Tue 01:12:27 PM 43.5294 -91.4033 333° Northwest 135 155 4,000 48 Climbing Minneapolis Center
Tue 01:13:29 PM 43.5622 -91.4242 335° Northwest 134 154 4,000 -48 Level Minneapolis Center
Tue 01:14:31 PM 43.5983 -91.4492 333° Northwest 136 157 3,900 -48 Descending Minneapolis Center
Tue 01:15:33 PM 43.6319 -91.4747 331° Northwest 137 158 3,900  Level Minneapolis Center
Tue 01:16:36 PM 43.6689 -91.4989 335° Northwest 136 157 3,900 48 Level Minneapolis Center
Tue 01:17:38 PM 43.7028 -91.5233 332° Northwest 137 158 4,000  Climbing Minneapolis Center
Tue 01:18:40 PM 43.7375 -91.5467 334° Northwest 139 160 3,900  Descending Minneapolis Center
Tue 01:19:42 PM 43.7733 -91.5708 334° Northwest 132 152 4,000  Climbing Minneapolis Center
Tue 01:20:44 PM 43.8058 -91.5933 333° Northwest 132 152 3,900  Descending Minneapolis Center
Tue 01:21:46 PM 43.8383 -91.6161 333° Northwest 132 152 4,000  Climbing Minneapolis Center
Tue 01:22:48 PM 43.8739 -91.6397 334° Northwest 132 152 3,900 -48 Descending Minneapolis Center
Tue 01:23:50 PM 43.9092 -91.6639 334° Northwest 132 152 3,900  Level Minneapolis Center
Tue 01:24:52 PM 43.9406 -91.6858 333° Northwest 132 152 3,900 48 Level Minneapolis Center
Tue 01:25:54 PM 43.9764 -91.7106 334° Northwest 132 152 4,000 48 Climbing Minneapolis Center
Tue 01:26:56 PM 44.0089 -91.7328 334° Northwest 132 152 4,000  Level Minneapolis Center
Tue 01:27:59 PM 44.0439 -91.7578 333° Northwest 131 151 4,000  Level Minneapolis Center
Tue 01:29:01 PM 44.0786 -91.7822 333° Northwest 132 152 4,000  Level Minneapolis Center
Tue 01:30:03 PM 44.1117 -91.8053 333° Northwest 132 152 4,000  Level Minneapolis Center
Tue 01:31:05 PM 44.1467 -91.8308 332° Northwest 132 152 4,000  Level Minneapolis Center
Tue 01:32:07 PM 44.1794 -91.8522 335° Northwest 132 152 4,000  Level Minneapolis Center
Tue 01:33:09 PM 44.2147 -91.8778 333° Northwest 132 152 4,000  Level Minneapolis Center
Tue 01:34:11 PM 44.2472 -91.9003 334° Northwest 132 152 4,000  Level Minneapolis Center
Tue 01:35:13 PM 44.2828 -91.9250 334° Northwest 132 152 4,000  Level Minneapolis Center
Tue 01:36:15 PM 44.3144 -91.9472 333° Northwest 132 152 4,000 -48 Level Minneapolis Center
Tue 01:37:17 PM 44.3503 -91.9717 334° Northwest 132 152 3,900  Descending Minneapolis Center
Tue 01:38:20 PM 44.3853 -91.9969 333° Northwest 132 152 4,000  Climbing Minneapolis Center
Tue 01:39:22 PM 44.4175 -92.0194 333° Northwest 132 152 3,900  Descending Minneapolis Center
Tue 01:40:24 PM 44.4525 -92.0439 334° Northwest 132 152 4,000  Climbing Minneapolis Center
Tue 01:41:26 PM 44.4850 -92.0675 333° Northwest 132 152 3,900 -48 Descending Minneapolis Center
Tue 01:42:28 PM 44.5208 -92.0914 335° Northwest 132 152 3,900  Level Minneapolis Center
Tue 01:43:30 PM 44.5536 -92.1153 333° Northwest 133 153 3,900  Level Minneapolis Center
Tue 01:44:32 PM 44.5892 -92.1386 335° Northwest 133 153 3,900  Level Minneapolis Center
Tue 01:45:34 PM 44.6178 -92.1578 335° Northwest 133 153 3,900  Level Minneapolis Center
Tue 01:46:36 PM 44.6564 -92.1875 331° Northwest 133 153 3,900  Level Minneapolis Center
Tue 01:47:38 PM 44.6861 -92.2167 325° Northwest 133 153 3,900  Level Minneapolis Center
Tue 01:48:41 PM 44.7103 -92.2542 312° West 132 152 3,900  Level Minneapolis Center
Tue 01:49:43 PM 44.7344 -92.2931 311° West 132 152 3,900  Level Minneapolis Center
Tue 01:50:45 PM 44.7594 -92.3306 313° West 132 152 3,900  Level Minneapolis Center
Tue 01:51:47 PM 44.7842 -92.3686 312° West 132 152 3,900 48 Level Minneapolis Center
Tue 01:52:49 PM 44.8128 -92.4150 311° West 132 152 4,000 48 Climbing Minneapolis Center
Tue 01:53:51 PM 44.8381 -92.4536 313° West 132 152 4,000  Level Minneapolis Center
Tue 01:54:53 PM 44.8628 -92.4925 312° West 132 152 4,000  Level Minneapolis Center
Tue 01:55:55 PM 44.8872 -92.5311 312° West 133 153 4,000  Level Minneapolis Center
Tue 01:56:57 PM 44.9125 -92.5708 312° West 134 154 4,000  Level Minneapolis Center
Tue 01:57:59 PM 44.9431 -92.6194 312° West 135 155 4,000  Level Minneapolis Center
Tue 01:59:01 PM 44.9692 -92.6592 313° West 135 155 4,000  Level Minneapolis Center
Tue 02:00:03 PM 44.9931 -92.6975 311° West 135 155 4,000  Level Minneapolis Center
Tue 02:01:06 PM 45.0178 -92.7364 312° West 135 155 4,000  Level Minneapolis Center
Tue 02:02:08 PM 45.0431 -92.7761 312° West 135 155 4,000  Level Minneapolis Center
Tue 02:03:10 PM 45.0678 -92.8153 312° West 135 155 4,000  Level Minneapolis Center
Tue 02:04:12 PM 45.0969 -92.8628 311° West 135 155 4,000  Level Minneapolis Center
Tue 02:05:14 PM 45.1217 -92.9025 311° West 135 155 4,000  Level Minneapolis Center
Tue 02:06:16 PM 45.1469 -92.9419 312° West 135 155 4,000  Level Minneapolis Center
Tue 02:07:18 PM 45.1719 -92.9811 312° West 135 155 4,000  Level Minneapolis Center
Tue 02:08:20 PM 45.1978 -93.0225 312° West 136 157 4,000  Level Minneapolis Center
Tue 02:09:22 PM 45.2278 -93.0714 311° West 136 157 4,000  Level Minneapolis Center
Tue 02:10:24 PM 45.2533 -93.1100 313° West 136 157 4,000  Level Minneapolis Center
Tue 02:11:26 PM 45.2781 -93.1508 311° West 136 157 4,000  Level Minneapolis Center
Tue 02:12:28 PM 45.3031 -93.1908 312° West 136 157 4,000  Level Minneapolis Center
Tue 02:13:30 PM 45.3278 -93.2317 311° West 136 157 4,000  Level Minneapolis Center

Login

Don't have an account? Register now (free) for customized features, flight alerts, and more!